createdAt,value
2023-11-28T00:00:49.766Z,98456.06
2023-11-28T00:05:42.090Z,98460.19
2023-11-28T00:10:33.745Z,98470.50
2023-11-28T00:15:25.490Z,98477.09
2023-11-28T00:20:17.139Z,98478.75
2023-11-28T00:25:09.105Z,98477.75
2023-11-28T00:30:00.775Z,98488.25
2023-11-28T00:34:52.506Z,98467.00
2023-11-28T00:39:44.366Z,98479.16
2023-11-28T00:44:36.087Z,98485.59
2023-11-28T00:49:27.773Z,98496.50
2023-11-28T00:54:19.436Z,98503.72
2023-11-28T00:59:11.131Z,98510.34
2023-11-28T01:04:03.237Z,98517.78
2023-11-28T01:08:58.681Z,98528.53
2023-11-28T01:13:50.636Z,98525.63
2023-11-28T01:18:42.276Z,98537.16
2023-11-28T01:23:34.006Z,98546.88
2023-11-28T01:28:25.667Z,98555.13
2023-11-28T01:33:17.448Z,98570.00
2023-11-28T01:38:09.158Z,98579.72
2023-11-28T01:43:01.558Z,98586.53
2023-11-28T01:47:57.057Z,98592.34
2023-11-28T01:52:50.874Z,98606.97
2023-11-28T01:57:42.799Z,98610.31
2023-11-28T02:02:36.537Z,98622.06
2023-11-28T02:07:28.631Z,98622.69
2023-11-28T02:12:20.356Z,98636.75
2023-11-28T02:17:12.303Z,98635.50
2023-11-28T02:22:05.536Z,98639.84
2023-11-28T02:26:57.220Z,98642.50
2023-11-28T02:31:50.246Z,98645.63
2023-11-28T02:36:41.925Z,98643.34
2023-11-28T02:41:33.629Z,98640.88
2023-11-28T02:46:25.378Z,98643.78
2023-11-28T02:51:21.891Z,98629.94
2023-11-28T02:56:13.666Z,98640.03
2023-11-28T03:01:05.578Z,98641.31
2023-11-28T03:05:57.372Z,98646.06
2023-11-28T03:10:49.157Z,98641.72
2023-11-28T03:15:41.379Z,98649.34
2023-11-28T03:20:33.052Z,98641.91
2023-11-28T03:25:24.747Z,98648.31
2023-11-28T03:30:16.626Z,98658.25
2023-11-28T03:35:08.483Z,98651.19
2023-11-28T03:40:00.287Z,98650.59
2023-11-28T03:44:51.966Z,98652.03
2023-11-28T03:49:43.683Z,98658.03
2023-11-28T03:54:35.468Z,98666.28
2023-11-28T03:59:27.195Z,98665.69
2023-11-28T04:04:18.948Z,98670.44
2023-11-28T04:09:11.567Z,98687.38
2023-11-28T04:14:03.490Z,98680.78
2023-11-28T04:18:55.285Z,98674.38
2023-11-28T04:23:47.497Z,98674.38
2023-11-28T04:28:39.435Z,98675.81
2023-11-28T04:33:32.708Z,98673.94
2023-11-28T04:38:24.704Z,98685.94
2023-11-28T04:43:16.377Z,98692.75
2023-11-28T04:48:08.046Z,98674.56
2023-11-28T04:52:59.740Z,98690.69
2023-11-28T04:57:51.409Z,98696.88
2023-11-28T05:02:43.486Z,98695.00
2023-11-28T05:07:36.031Z,98711.72
2023-11-28T05:12:30.298Z,98707.81
2023-11-28T05:17:21.992Z,98716.69
2023-11-28T05:22:13.853Z,98710.72
2023-11-28T05:27:05.939Z,98720.63
2023-11-28T05:31:57.720Z,98726.81
2023-11-28T05:36:49.370Z,98725.16
2023-11-28T05:41:41.005Z,98713.34
2023-11-28T05:46:32.733Z,98719.13
2023-11-28T05:51:24.479Z,98715.63
2023-11-28T05:56:16.293Z,98704.88
2023-11-28T06:01:08.355Z,98717.47
2023-11-28T06:06:01.234Z,98717.66
2023-11-28T06:10:52.950Z,98724.84
2023-11-28T06:15:44.999Z,98725.03
2023-11-28T06:20:36.922Z,98734.56
2023-11-28T06:25:28.754Z,98731.25
2023-11-28T06:30:20.426Z,98737.84
2023-11-28T06:35:12.440Z,98738.25
2023-11-28T06:40:05.092Z,98745.91
2023-11-28T06:44:56.743Z,98751.47
2023-11-28T06:49:49.203Z,98744.44
2023-11-28T06:54:42.080Z,98748.56
2023-11-28T06:59:34.537Z,98744.41
2023-11-28T07:04:26.254Z,98750.81
2023-11-28T07:09:17.978Z,98757.44
2023-11-28T07:14:09.818Z,98755.56
2023-11-28T07:19:01.764Z,98751.22
2023-11-28T07:23:53.458Z,98762.34
2023-11-28T07:28:45.248Z,98758.03
2023-11-28T07:33:37.001Z,98768.28
2023-11-28T07:38:28.979Z,98771.13
2023-11-28T07:43:20.673Z,98759.09
2023-11-28T07:48:12.518Z,98770.03
2023-11-28T07:53:04.601Z,98773.03
2023-11-28T07:57:56.394Z,98777.59
2023-11-28T08:02:48.639Z,98772.38
2023-11-28T08:07:43.253Z,98769.44
2023-11-28T08:12:35.898Z,98765.75
2023-11-28T08:17:27.748Z,98767.53
2023-11-28T08:22:20.845Z,98781.97
2023-11-28T08:27:12.643Z,98779.03
2023-11-28T08:32:04.805Z,98785.88
2023-11-28T08:36:56.869Z,98790.59
2023-11-28T08:41:49.734Z,98786.03
2023-11-28T08:46:41.611Z,98805.03
2023-11-28T08:51:35.014Z,98810.75
2023-11-28T08:56:26.816Z,98791.13
2023-11-28T09:01:18.666Z,98800.81
2023-11-28T09:06:10.623Z,98808.50
2023-11-28T09:11:04.241Z,98794.66
2023-11-28T09:15:56.875Z,98803.44
2023-11-28T09:20:49.723Z,98800.09
2023-11-28T09:25:46.042Z,98794.88
2023-11-28T09:30:42.153Z,98793.16
2023-11-28T09:35:34.055Z,98812.88
2023-11-28T09:40:26.053Z,98801.31
2023-11-28T09:45:20.042Z,98817.38
2023-11-28T09:50:15.664Z,98806.25
2023-11-28T09:55:12.609Z,98801.66
2023-11-28T10:00:06.732Z,98808.16
2023-11-28T10:04:58.530Z,98800.47
2023-11-28T10:09:50.713Z,98804.19
2023-11-28T10:14:50.335Z,98800.28
2023-11-28T10:19:48.126Z,98791.94
2023-11-28T10:24:41.124Z,98790.91
2023-11-28T10:29:36.092Z,98793.63
2023-11-28T10:34:29.852Z,98788.59
2023-11-28T10:39:42.040Z,98790.47
2023-11-28T10:44:34.687Z,98784.28
2023-11-28T10:49:26.779Z,98779.47
2023-11-28T10:54:23.849Z,98780.56
2023-11-28T11:04:42.878Z,98769.00
2023-11-28T11:09:35.071Z,98775.66
2023-11-28T11:14:49.050Z,98764.53
2023-11-28T11:19:43.714Z,98763.66
2023-11-28T11:24:35.496Z,98749.00
2023-11-28T11:29:27.211Z,98744.78
2023-11-28T11:34:45.319Z,98740.56
2023-11-28T11:39:40.647Z,98733.75
2023-11-28T11:44:32.481Z,98734.56
2023-11-28T11:49:25.176Z,98731.56
2023-11-28T11:54:17.228Z,98723.56
2023-11-28T11:59:11.859Z,98725.06
2023-11-28T12:04:04.732Z,98720.81
2023-11-28T12:09:01.324Z,98711.84
2023-11-28T12:13:53.552Z,98715.78
2023-11-28T12:18:45.750Z,98704.56
2023-11-28T12:23:37.751Z,98699.13
2023-11-28T12:28:29.997Z,98698.00
2023-11-28T12:33:25.386Z,98700.28
2023-11-28T12:38:19.090Z,98689.84
2023-11-28T12:43:23.095Z,98681.22
2023-11-28T12:48:16.583Z,98671.97
2023-11-28T12:53:39.048Z,98672.25
2023-11-28T12:58:30.909Z,98666.16
2023-11-28T13:03:23.359Z,98671.03
2023-11-28T13:08:20.596Z,98663.88
2023-11-28T13:13:17.512Z,98670.19
2023-11-28T13:18:10.730Z,98668.66
2023-11-28T13:23:08.792Z,98660.41
2023-11-28T13:28:05.033Z,98666.13
2023-11-28T13:32:59.844Z,98662.69
2023-11-28T13:37:51.890Z,98658.03
2023-11-28T13:42:46.015Z,98653.78
2023-11-28T13:47:38.193Z,98660.19
2023-11-28T13:52:30.580Z,98649.28
2023-11-28T13:57:22.438Z,98659.31
2023-11-28T14:02:14.336Z,98653.19
2023-11-28T14:07:08.060Z,98644.13
2023-11-28T14:12:04.573Z,98657.53
2023-11-28T14:16:56.358Z,98657.63
2023-11-28T14:21:48.484Z,98644.78
2023-11-28T14:26:40.281Z,98655.44
2023-11-28T14:31:32.056Z,98644.78
2023-11-28T14:36:24.123Z,98651.06
2023-11-28T14:41:15.905Z,98640.34
2023-11-28T14:46:07.808Z,98638.09
2023-11-28T14:50:59.734Z,98639.81
2023-11-28T14:55:56.262Z,98640.91
2023-11-28T15:00:48.470Z,98643.25
2023-11-28T15:05:40.391Z,98638.28
2023-11-28T15:10:33.494Z,98624.63
2023-11-28T15:15:25.219Z,98619.88
2023-11-28T15:20:16.929Z,98632.50
2023-11-28T15:25:09.402Z,98628.31
2023-11-28T15:30:01.418Z,98631.00
2023-11-28T15:34:54.771Z,98621.72
2023-11-28T15:39:46.660Z,98618.03
2023-11-28T15:44:38.590Z,98608.38
2023-11-28T15:49:39.943Z,98613.78
2023-11-28T15:54:38.774Z,98612.97
2023-11-28T15:59:31.134Z,98604.34
2023-11-28T16:04:22.904Z,98607.75
2023-11-28T16:09:14.597Z,98612.13
2023-11-28T16:14:07.286Z,98606.59
2023-11-28T16:19:01.447Z,98598.78
2023-11-28T16:23:53.349Z,98599.03
2023-11-28T16:28:45.141Z,98597.41
2023-11-28T16:33:39.674Z,98595.66
2023-11-28T16:38:38.034Z,98587.59
2023-11-28T16:43:29.805Z,98587.06
2023-11-28T16:48:22.777Z,98576.59
2023-11-28T16:53:14.678Z,98582.22
2023-11-28T16:58:06.363Z,98578.16
2023-11-28T17:02:58.222Z,98573.44
2023-11-28T17:07:50.359Z,98565.22
2023-11-28T17:12:42.239Z,98572.66
2023-11-28T17:17:34.206Z,98567.94
2023-11-28T17:22:26.193Z,98554.72
2023-11-28T17:27:18.021Z,98568.38
2023-11-28T17:32:09.812Z,98564.88
2023-11-28T17:37:02.255Z,98553.91
2023-11-28T17:41:54.069Z,98549.56
2023-11-28T17:46:45.769Z,98557.22
2023-11-28T17:51:37.573Z,98566.50
2023-11-28T17:56:29.487Z,98565.66
2023-11-28T18:01:21.696Z,98571.44
2023-11-28T18:06:13.435Z,98556.97
2023-11-28T18:11:07.354Z,98554.94
2023-11-28T18:15:59.290Z,98539.44
2023-11-28T18:20:51.045Z,98541.91
2023-11-28T18:25:42.878Z,98550.56
2023-11-28T18:30:34.724Z,98529.31
2023-11-28T18:35:26.613Z,98537.16
2023-11-28T18:40:18.466Z,98531.59
2023-11-28T18:45:10.452Z,98527.03
2023-11-28T18:50:02.309Z,98522.69
2023-11-28T18:54:54.544Z,98532.41
2023-11-28T18:59:46.630Z,98520.88
2023-11-28T19:04:38.338Z,98519.41
2023-11-28T19:09:31.647Z,98519.63
2023-11-28T19:14:23.350Z,98519.41
2023-11-28T19:19:15.775Z,98523.50
2023-11-28T19:24:07.687Z,98506.38
2023-11-28T19:28:59.430Z,98508.44
2023-11-28T19:33:51.184Z,98496.66
2023-11-28T19:38:43.439Z,98503.88
2023-11-28T19:43:35.232Z,98502.44
2023-11-28T19:48:27.296Z,98502.03
2023-11-28T19:53:19.293Z,98497.28
2023-11-28T19:58:11.410Z,98495.00
2023-11-28T20:03:03.280Z,98495.41
2023-11-28T20:07:55.073Z,98495.41
2023-11-28T20:12:46.814Z,98486.53
2023-11-28T20:17:38.648Z,98491.44
2023-11-28T20:22:31.770Z,98493.50
2023-11-28T20:27:25.303Z,98499.06
2023-11-28T20:32:17.023Z,98485.06
2023-11-28T20:37:18.577Z,98483.00
2023-11-28T20:42:11.645Z,98480.13
2023-11-28T20:47:03.647Z,98483.22
2023-11-28T20:51:55.491Z,98476.63
2023-11-28T20:56:47.859Z,98482.22
2023-11-28T21:01:39.719Z,98473.78
2023-11-28T21:06:31.670Z,98469.44
2023-11-28T21:11:23.776Z,98459.56
2023-11-28T21:16:20.065Z,98458.94
2023-11-28T21:21:15.779Z,98455.41
2023-11-28T21:26:08.204Z,98463.06
2023-11-28T21:31:02.198Z,98455.44
2023-11-28T21:35:54.766Z,98454.41
2023-11-28T21:40:47.020Z,98444.94
2023-11-28T21:45:39.516Z,98451.72
2023-11-28T21:50:33.745Z,98451.50
2023-11-28T21:55:28.424Z,98448.41
2023-11-28T22:00:20.504Z,98436.06
2023-11-28T22:05:12.278Z,98437.28
2023-11-28T22:10:04.693Z,98435.66
2023-11-28T22:14:56.507Z,98429.84
2023-11-28T22:19:48.443Z,98413.34
2023-11-28T22:24:40.717Z,98421.81
2023-11-28T22:29:32.481Z,98410.88
2023-11-28T22:34:24.184Z,98417.69
2023-11-28T22:39:17.247Z,98404.28
2023-11-28T22:44:08.929Z,98409.44
2023-11-28T22:49:00.597Z,98399.94
2023-11-28T22:53:54.235Z,98400.34
2023-11-28T22:58:45.956Z,98407.19
2023-11-28T23:03:38.720Z,98399.53
2023-11-28T23:08:35.284Z,98392.72
2023-11-28T23:13:27.044Z,98400.13
2023-11-28T23:18:18.710Z,98395.41
2023-11-28T23:23:10.573Z,98405.94
2023-11-28T23:28:02.275Z,98410.25
2023-11-28T23:32:54.164Z,98395.00
2023-11-28T23:37:49.633Z,98400.16
2023-11-28T23:42:46.996Z,98398.09
2023-11-28T23:47:45.293Z,98390.25
2023-11-28T23:52:37.231Z,98380.13
2023-11-28T23:57:29.625Z,98378.88
